createdAt,value
2022-11-25T00:01:56.217Z,9.04
2022-11-25T00:04:25.009Z,9.09
2022-11-25T00:06:54.378Z,8.98
2022-11-25T00:09:22.968Z,9.11
2022-11-25T00:11:51.654Z,9.04
2022-11-25T00:14:23.955Z,9.15
2022-11-25T00:16:55.033Z,9.05
2022-11-25T00:19:23.782Z,9.06
2022-11-25T00:21:51.924Z,9.07
2022-11-25T00:24:21.442Z,9.03
2022-11-25T00:26:49.997Z,9.10
2022-11-25T00:29:18.666Z,9.01
2022-11-25T00:31:47.060Z,9.05
2022-11-25T00:34:20.009Z,9.09
2022-11-25T00:36:49.226Z,9.17
2022-11-25T00:39:18.828Z,9.13
2022-11-25T00:42:08.526Z,9.14
2022-11-25T00:44:40.890Z,9.15
2022-11-25T00:47:10.377Z,9.08
2022-11-25T00:49:41.220Z,8.99
2022-11-25T00:52:12.007Z,9.00
2022-11-25T00:54:41.541Z,9.05
2022-11-25T00:57:12.374Z,9.04
2022-11-25T00:59:41.715Z,8.97
2022-11-25T01:02:12.358Z,9.06
2022-11-25T01:04:41.024Z,8.93
2022-11-25T01:07:10.174Z,8.90
2022-11-25T01:09:39.854Z,8.85
2022-11-25T01:12:11.009Z,8.92
2022-11-25T01:14:39.439Z,8.93
2022-11-25T01:17:09.998Z,8.94
2022-11-25T01:19:40.652Z,8.83
2022-11-25T01:22:10.210Z,8.69
2022-11-25T01:24:39.848Z,8.83
2022-11-25T01:27:08.461Z,8.84
2022-11-25T01:29:37.102Z,8.81
2022-11-25T01:32:06.501Z,8.75
2022-11-25T01:34:35.411Z,8.75
2022-11-25T01:37:05.810Z,8.82
2022-11-25T01:39:35.566Z,8.82
2022-11-25T01:42:04.091Z,8.78
2022-11-25T01:44:33.332Z,8.85
2022-11-25T01:47:23.667Z,8.63
2022-11-25T01:50:04.980Z,8.65
2022-11-25T01:52:39.461Z,8.76
2022-11-25T01:55:40.603Z,8.67
2022-11-25T01:58:18.490Z,8.66
2022-11-25T02:00:51.659Z,8.65
2022-11-25T02:03:25.198Z,8.71
2022-11-25T02:06:03.128Z,8.60
2022-11-25T02:08:31.398Z,8.67
2022-11-25T02:11:02.259Z,8.52
2022-11-25T02:13:30.700Z,8.59
2022-11-25T02:16:00.272Z,8.46
2022-11-25T02:18:28.919Z,8.49
2022-11-25T02:20:57.127Z,8.52
2022-11-25T02:23:43.838Z,8.53
2022-11-25T02:26:14.981Z,8.60
2022-11-25T02:28:44.053Z,8.58
2022-11-25T02:31:12.108Z,8.42
2022-11-25T02:33:41.036Z,8.46
2022-11-25T02:36:15.214Z,8.40
2022-11-25T02:38:49.694Z,8.37
2022-11-25T02:41:37.304Z,8.40
2022-11-25T02:44:06.987Z,8.42
2022-11-25T02:46:35.715Z,8.43
2022-11-25T02:49:09.221Z,8.42
2022-11-25T02:51:41.891Z,8.55
2022-11-25T02:54:12.343Z,8.49
2022-11-25T02:56:43.431Z,8.45
2022-11-25T02:59:13.282Z,8.53
2022-11-25T03:01:41.025Z,8.43
2022-11-25T03:04:10.567Z,8.43
2022-11-25T03:06:39.567Z,8.48
2022-11-25T03:14:01.167Z,8.22
2022-11-25T03:16:30.039Z,8.27
2022-11-25T03:18:58.715Z,8.32
2022-11-25T03:21:27.055Z,8.27
2022-11-25T03:23:55.695Z,8.29
2022-11-25T03:26:27.089Z,8.46
2022-11-25T03:28:58.340Z,8.32
2022-11-25T03:31:27.100Z,8.30
2022-11-25T03:33:56.393Z,8.40
2022-11-25T03:36:25.048Z,8.44
2022-11-25T03:38:53.881Z,8.50
2022-11-25T03:41:23.018Z,8.32
2022-11-25T03:43:51.920Z,8.36
2022-11-25T03:46:23.305Z,8.53
2022-11-25T03:48:51.023Z,8.40
2022-11-25T03:51:20.006Z,8.38
2022-11-25T03:53:48.039Z,8.40
2022-11-25T03:56:16.626Z,8.40
2022-11-25T03:58:45.118Z,8.37
2022-11-25T04:01:14.059Z,8.53
2022-11-25T04:03:43.068Z,8.33
2022-11-25T04:06:12.683Z,8.39
2022-11-25T04:08:41.049Z,8.28
2022-11-25T04:11:10.591Z,8.29
2022-11-25T04:13:39.151Z,8.33
2022-11-25T04:16:07.090Z,8.24
2022-11-25T04:18:37.152Z,8.25
2022-11-25T04:21:05.230Z,8.19
2022-11-25T04:23:33.991Z,8.08
2022-11-25T04:26:02.371Z,8.19
2022-11-25T04:28:32.262Z,7.99
2022-11-25T04:31:05.726Z,8.08
2022-11-25T04:33:37.086Z,8.07
2022-11-25T04:36:05.543Z,8.04
2022-11-25T04:38:35.022Z,8.06
2022-11-25T04:41:02.988Z,8.03
2022-11-25T04:43:32.233Z,7.94
2022-11-25T04:46:16.363Z,8.09
2022-11-25T04:48:45.484Z,8.15
2022-11-25T04:51:14.160Z,7.97
2022-11-25T04:53:44.172Z,7.95
2022-11-25T04:56:21.784Z,7.98
2022-11-25T04:59:09.482Z,8.02
2022-11-25T05:01:38.251Z,7.99
2022-11-25T05:04:07.432Z,7.82
2022-11-25T05:06:37.032Z,7.88
2022-11-25T05:09:06.879Z,7.95
2022-11-25T05:11:34.661Z,7.92
2022-11-25T05:14:03.001Z,7.91
2022-11-25T05:16:31.920Z,7.93
2022-11-25T05:19:01.151Z,7.97
2022-11-25T05:21:30.054Z,8.01
2022-11-25T05:23:59.348Z,7.91
2022-11-25T05:26:27.006Z,7.90
2022-11-25T05:28:55.681Z,7.91
2022-11-25T05:31:24.741Z,7.81
2022-11-25T05:33:53.033Z,7.75
2022-11-25T05:36:22.215Z,7.89
2022-11-25T05:38:50.920Z,7.73
2022-11-25T05:41:19.110Z,7.84
2022-11-25T05:43:48.363Z,7.85
2022-11-25T05:46:16.213Z,7.73
2022-11-25T05:48:45.642Z,7.75
2022-11-25T05:51:14.092Z,7.78
2022-11-25T05:53:43.013Z,7.87
2022-11-25T05:56:12.823Z,7.83
2022-11-25T05:58:41.988Z,7.80
2022-11-25T06:01:12.169Z,7.85
2022-11-25T06:03:42.170Z,7.84
2022-11-25T06:06:11.525Z,7.68
2022-11-25T06:08:40.612Z,7.90
2022-11-25T06:11:12.778Z,7.80
2022-11-25T06:13:44.253Z,7.91
2022-11-25T06:16:19.932Z,7.90
2022-11-25T06:18:51.127Z,7.71
2022-11-25T06:21:23.053Z,7.78
2022-11-25T06:23:51.015Z,7.87
2022-11-25T06:26:22.322Z,7.83
2022-11-25T06:28:55.460Z,7.90
2022-11-25T06:31:27.790Z,7.85
2022-11-25T06:33:58.158Z,8.08
2022-11-25T06:36:30.618Z,8.05
2022-11-25T06:38:59.105Z,8.03
2022-11-25T06:41:31.713Z,7.98
2022-11-25T06:44:00.856Z,8.10
2022-11-25T06:46:29.169Z,8.12
2022-11-25T06:49:00.579Z,7.98
2022-11-25T06:51:29.314Z,8.09
2022-11-25T06:53:58.324Z,7.97
2022-11-25T06:56:28.181Z,8.11
2022-11-25T06:58:57.526Z,8.19
2022-11-25T07:01:39.038Z,8.12
2022-11-25T07:04:11.014Z,8.10
2022-11-25T07:07:01.435Z,8.20
2022-11-25T07:09:41.121Z,8.07
2022-11-25T07:12:09.251Z,8.08
2022-11-25T07:14:39.150Z,8.16
2022-11-25T07:17:12.258Z,8.03
2022-11-25T07:19:45.855Z,8.22
2022-11-25T07:22:15.611Z,8.01
2022-11-25T07:24:46.344Z,8.11
2022-11-25T07:27:16.565Z,8.16
2022-11-25T07:30:54.419Z,8.06
2022-11-25T07:32:57.270Z,8.16
2022-11-25T07:35:26.834Z,8.28
2022-11-25T07:37:58.018Z,8.28
2022-11-25T07:40:30.077Z,8.26
2022-11-25T07:43:03.690Z,8.43
2022-11-25T07:45:42.078Z,8.33
2022-11-25T07:48:16.683Z,8.38
2022-11-25T07:50:47.232Z,8.34
2022-11-25T07:53:18.395Z,8.36
2022-11-25T07:55:49.360Z,8.53
2022-11-25T07:58:19.595Z,8.53
2022-11-25T08:00:49.280Z,8.45
2022-11-25T08:03:18.350Z,8.45
2022-11-25T08:05:50.297Z,8.52
2022-11-25T08:08:20.054Z,8.27
2022-11-25T08:10:52.999Z,8.36
2022-11-25T08:13:24.639Z,8.32
2022-11-25T08:15:54.698Z,8.34
2022-11-25T08:18:23.583Z,8.33
2022-11-25T08:20:52.981Z,8.42
2022-11-25T08:23:23.925Z,8.39
2022-11-25T08:25:54.497Z,8.33
2022-11-25T08:28:26.551Z,8.31
2022-11-25T08:31:06.237Z,8.37
2022-11-25T08:33:35.848Z,8.58
2022-11-25T08:36:06.660Z,8.42
2022-11-25T08:38:38.034Z,8.41
2022-11-25T08:41:15.465Z,8.36
2022-11-25T08:43:44.541Z,8.30
2022-11-25T08:46:23.752Z,8.20
2022-11-25T08:48:52.901Z,8.39
2022-11-25T08:51:29.218Z,8.23
2022-11-25T08:54:01.398Z,8.29
2022-11-25T08:56:41.117Z,8.38
2022-11-25T08:59:10.590Z,8.36
2022-11-25T09:01:41.536Z,8.45
2022-11-25T09:04:12.092Z,8.23
2022-11-25T09:06:44.348Z,8.30
2022-11-25T09:09:17.956Z,8.32
2022-11-25T09:11:48.680Z,8.25
2022-11-25T09:14:18.855Z,8.28
2022-11-25T09:16:49.734Z,8.29
2022-11-25T09:19:23.064Z,8.35
2022-11-25T09:21:55.110Z,8.32
2022-11-25T09:24:27.067Z,8.25
2022-11-25T09:26:57.439Z,8.31
2022-11-25T09:29:29.214Z,8.30
2022-11-25T09:32:00.415Z,8.43
2022-11-25T09:34:31.580Z,8.35
2022-11-25T09:37:04.305Z,8.41
2022-11-25T09:39:37.195Z,8.34
2022-11-25T09:42:58.769Z,8.37
2022-11-25T09:46:11.493Z,8.45
2022-11-25T09:49:13.568Z,8.46
2022-11-25T09:51:57.748Z,8.48
2022-11-25T09:54:36.112Z,8.46
2022-11-25T09:57:51.962Z,8.34
2022-11-25T10:00:47.778Z,8.40
2022-11-25T10:03:24.623Z,8.59
2022-11-25T10:06:05.486Z,8.59
2022-11-25T10:08:42.242Z,8.48
2022-11-25T10:11:25.240Z,8.54
2022-11-25T10:14:14.525Z,8.41
2022-11-25T10:16:51.410Z,8.58
2022-11-25T10:19:20.298Z,8.55
2022-11-25T10:21:53.034Z,8.56
2022-11-25T10:24:23.793Z,8.42
2022-11-25T10:27:08.913Z,8.31
2022-11-25T10:29:38.961Z,8.42
2022-11-25T10:32:41.333Z,8.43
2022-11-25T10:35:24.788Z,8.37
2022-11-25T10:37:56.828Z,8.32
2022-11-25T10:40:26.199Z,8.30
2022-11-25T10:42:56.290Z,8.53
2022-11-25T10:45:39.654Z,8.54
2022-11-25T10:48:55.822Z,8.56
2022-11-25T10:51:51.870Z,8.60
2022-11-25T10:54:29.490Z,8.70
2022-11-25T10:57:05.298Z,8.41
2022-11-25T10:59:40.627Z,8.62
2022-11-25T11:02:31.442Z,8.70
2022-11-25T11:05:15.159Z,8.61
2022-11-25T11:07:47.591Z,8.68
2022-11-25T11:10:24.183Z,8.64
2022-11-25T11:13:03.156Z,8.78
2022-11-25T11:15:44.264Z,8.71
2022-11-25T11:18:23.527Z,8.67
2022-11-25T11:21:00.674Z,8.81
2022-11-25T11:23:49.619Z,8.77
2022-11-25T11:26:26.641Z,8.72
2022-11-25T11:29:15.499Z,8.87
2022-11-25T11:32:08.304Z,8.74
2022-11-25T11:34:54.590Z,8.62
2022-11-25T11:37:48.150Z,8.70
2022-11-25T11:40:59.754Z,8.69
2022-11-25T11:43:39.899Z,8.70
2022-11-25T11:46:54.093Z,8.76
2022-11-25T11:49:56.627Z,8.79
2022-11-25T11:53:08.263Z,8.81
2022-11-25T11:59:29.005Z,8.82
2022-11-25T12:02:28.916Z,8.82
2022-11-25T12:05:17.801Z,8.75
2022-11-25T12:08:50.850Z,8.86
2022-11-25T12:11:25.899Z,8.85
2022-11-25T12:14:12.235Z,8.89
2022-11-25T12:17:18.967Z,8.90
2022-11-25T12:20:04.404Z,8.87
2022-11-25T12:22:49.471Z,8.75
2022-11-25T12:25:32.174Z,8.94
2022-11-25T12:28:27.459Z,8.85
2022-11-25T12:31:37.193Z,8.89
2022-11-25T12:34:41.791Z,8.68
2022-11-25T12:37:21.685Z,8.67
2022-11-25T12:40:06.460Z,8.80
2022-11-25T12:42:40.311Z,8.79
2022-11-25T12:45:26.725Z,8.80
2022-11-25T12:47:56.405Z,8.69
2022-11-25T12:50:52.500Z,8.75
2022-11-25T12:53:47.156Z,8.83
2022-11-25T12:56:36.336Z,8.66
2022-11-25T12:59:36.306Z,8.71
2022-11-25T13:02:52.862Z,8.70
2022-11-25T13:05:59.915Z,8.61
2022-11-25T13:08:50.535Z,8.59
2022-11-25T13:11:39.116Z,8.54
2022-11-25T13:14:32.329Z,8.63
2022-11-25T13:17:03.261Z,8.71
2022-11-25T13:19:37.170Z,8.70
2022-11-25T13:22:27.328Z,8.62
2022-11-25T13:24:58.670Z,8.67
2022-11-25T13:27:31.500Z,8.72
2022-11-25T13:30:01.813Z,8.69
2022-11-25T13:32:39.214Z,8.77
2022-11-25T13:35:43.035Z,8.73
2022-11-25T13:38:38.560Z,8.72
2022-11-25T13:41:34.481Z,8.78
2022-11-25T13:44:22.275Z,8.84
2022-11-25T13:46:53.938Z,8.86
2022-11-25T13:49:27.126Z,8.87
2022-11-25T13:52:18.860Z,8.86
2022-11-25T13:54:55.285Z,8.78
2022-11-25T13:57:37.073Z,8.73
2022-11-25T14:00:20.737Z,8.69
2022-11-25T14:02:50.262Z,8.75
2022-11-25T14:05:39.007Z,8.78
2022-11-25T14:09:04.762Z,8.59
2022-11-25T14:11:39.845Z,8.59
2022-11-25T14:14:49.459Z,8.71
2022-11-25T14:17:31.819Z,8.61
2022-11-25T14:20:13.584Z,8.60
2022-11-25T14:23:22.346Z,8.61
2022-11-25T14:26:11.718Z,8.61
2022-11-25T14:29:03.435Z,8.61
2022-11-25T14:31:38.508Z,8.61
2022-11-25T14:34:32.213Z,8.60
2022-11-25T14:37:37.759Z,8.55
2022-11-25T14:40:30.788Z,8.52
2022-11-25T14:43:07.328Z,8.64
2022-11-25T14:45:51.791Z,8.46
2022-11-25T14:48:35.068Z,8.51
2022-11-25T14:51:13.974Z,8.49
2022-11-25T14:54:02.979Z,8.56
2022-11-25T14:56:36.169Z,8.56
2022-11-25T14:59:10.219Z,8.46
2022-11-25T15:01:55.264Z,8.50
2022-11-25T15:04:25.436Z,8.39
2022-11-25T15:07:05.684Z,8.43
2022-11-25T15:09:44.612Z,8.47
2022-11-25T15:12:24.891Z,8.45
2022-11-25T15:14:59.678Z,8.59
2022-11-25T15:17:43.954Z,8.65
2022-11-25T15:20:17.838Z,8.65
2022-11-25T15:23:01.182Z,8.57
2022-11-25T15:25:50.627Z,8.68
2022-11-25T15:28:19.712Z,8.56
2022-11-25T15:30:59.172Z,8.58
2022-11-25T15:33:38.531Z,8.50
2022-11-25T15:36:20.682Z,8.54
2022-11-25T15:38:50.269Z,8.48
2022-11-25T15:41:39.551Z,8.49
2022-11-25T15:44:38.847Z,8.59
2022-11-25T15:47:33.256Z,8.60
2022-11-25T15:50:28.895Z,8.65
2022-11-25T15:53:10.000Z,8.56
2022-11-25T15:55:41.661Z,8.65
2022-11-25T15:58:19.827Z,8.61
2022-11-25T16:01:17.458Z,8.69
2022-11-25T16:03:50.033Z,8.81
2022-11-25T16:06:30.201Z,8.77
2022-11-25T16:09:07.762Z,8.71
2022-11-25T16:11:45.588Z,8.60
2022-11-25T16:14:29.337Z,8.57
2022-11-25T16:17:05.765Z,8.64
2022-11-25T16:19:40.892Z,8.59
2022-11-25T16:22:19.602Z,8.64
2022-11-25T16:25:03.140Z,8.64
2022-11-25T16:27:37.895Z,8.66
2022-11-25T16:30:19.551Z,8.70
2022-11-25T16:32:48.546Z,8.61
2022-11-25T16:35:25.537Z,8.63
2022-11-25T16:37:58.331Z,8.64
2022-11-25T16:40:28.090Z,8.52
2022-11-25T16:42:57.089Z,8.65
2022-11-25T16:45:27.853Z,8.70
2022-11-25T16:47:56.828Z,8.66
2022-11-25T16:50:25.110Z,8.75
2022-11-25T16:52:53.955Z,8.70
2022-11-25T16:55:22.963Z,8.73
2022-11-25T16:57:54.520Z,8.61
2022-11-25T17:00:24.185Z,8.57
2022-11-25T17:02:53.696Z,8.56
2022-11-25T17:05:27.149Z,8.65
2022-11-25T17:07:56.619Z,8.61
2022-11-25T17:10:27.177Z,8.62
2022-11-25T17:12:56.843Z,8.69
2022-11-25T17:15:36.820Z,8.62
2022-11-25T17:18:08.378Z,8.62
2022-11-25T17:20:37.034Z,8.51
2022-11-25T17:23:12.588Z,8.58
2022-11-25T17:25:48.005Z,8.46
2022-11-25T17:28:24.213Z,8.68
2022-11-25T17:30:52.173Z,8.70
2022-11-25T17:33:20.978Z,8.68
2022-11-25T17:35:50.198Z,8.72
2022-11-25T17:38:28.065Z,8.66
2022-11-25T17:40:56.026Z,8.76
2022-11-25T17:43:24.818Z,8.66
2022-11-25T17:45:53.129Z,8.76
2022-11-25T17:48:24.602Z,8.78
2022-11-25T17:50:53.953Z,8.75
2022-11-25T17:53:23.101Z,8.77
2022-11-25T17:55:54.094Z,8.79
2022-11-25T17:58:24.102Z,8.74
2022-11-25T18:00:52.032Z,8.62
2022-11-25T18:03:20.756Z,8.76
2022-11-25T18:05:50.025Z,8.54
2022-11-25T18:08:25.959Z,8.70
2022-11-25T18:11:12.990Z,8.76
2022-11-25T18:13:54.032Z,8.60
2022-11-25T18:16:37.127Z,8.51
2022-11-25T18:19:06.058Z,8.65
2022-11-25T18:21:36.592Z,8.61
2022-11-25T18:24:05.891Z,8.70
2022-11-25T18:26:49.164Z,8.50
2022-11-25T18:29:24.384Z,8.50
2022-11-25T18:31:56.080Z,8.48
2022-11-25T18:34:25.490Z,8.64
2022-11-25T18:36:54.831Z,8.55
2022-11-25T18:39:24.201Z,8.42
2022-11-25T18:41:58.281Z,8.50
2022-11-25T18:44:29.234Z,8.44
2022-11-25T18:46:57.990Z,8.50
2022-11-25T18:49:26.110Z,8.46
2022-11-25T18:51:55.047Z,8.55
2022-11-25T18:54:37.864Z,8.43
2022-11-25T18:57:21.705Z,8.37
2022-11-25T19:00:10.669Z,8.45
2022-11-25T19:02:42.973Z,8.44
2022-11-25T19:05:32.720Z,8.44
2022-11-25T19:08:02.173Z,8.38
2022-11-25T19:10:35.415Z,8.36
2022-11-25T19:13:12.184Z,8.40
2022-11-25T19:15:42.687Z,8.24
2022-11-25T19:18:16.885Z,8.42
2022-11-25T19:20:44.940Z,8.49
2022-11-25T19:23:31.177Z,8.39
2022-11-25T19:26:11.598Z,8.56
2022-11-25T19:28:41.515Z,8.56
2022-11-25T19:31:11.663Z,8.55
2022-11-25T19:33:43.788Z,8.59
2022-11-25T19:36:29.676Z,8.53
2022-11-25T19:38:58.578Z,8.45
2022-11-25T19:41:27.547Z,8.52
2022-11-25T19:43:56.247Z,8.50
2022-11-25T19:46:46.271Z,8.57
2022-11-25T19:49:20.540Z,8.51
2022-11-25T19:51:49.704Z,8.53
2022-11-25T19:54:19.772Z,8.57
2022-11-25T19:56:49.833Z,8.55
2022-11-25T19:59:17.971Z,8.49
2022-11-25T20:01:47.328Z,8.59
2022-11-25T20:04:25.236Z,8.53
2022-11-25T20:06:53.099Z,8.53
2022-11-25T20:09:21.997Z,8.61
2022-11-25T20:11:54.595Z,8.53
2022-11-25T20:14:23.116Z,8.61
2022-11-25T20:16:51.893Z,8.59
2022-11-25T20:19:20.129Z,8.63
2022-11-25T20:21:49.642Z,8.66
2022-11-25T20:24:20.536Z,8.66
2022-11-25T20:26:50.559Z,8.69
2022-11-25T20:29:24.706Z,8.70
2022-11-25T20:31:58.493Z,8.70
2022-11-25T20:34:28.635Z,8.72
2022-11-25T20:36:57.105Z,8.70
2022-11-25T20:39:27.009Z,8.59
2022-11-25T20:41:57.985Z,8.60
2022-11-25T20:44:28.783Z,8.54
2022-11-25T20:46:57.975Z,8.58
2022-11-25T20:49:29.879Z,8.60
2022-11-25T20:52:02.115Z,8.62
2022-11-25T20:54:33.122Z,8.49
2022-11-25T20:57:03.064Z,8.50
2022-11-25T20:59:31.290Z,8.55
2022-11-25T21:02:02.629Z,8.57
2022-11-25T21:04:31.549Z,8.42
2022-11-25T21:07:00.108Z,8.44
2022-11-25T21:09:33.458Z,8.41
2022-11-25T21:12:05.139Z,8.44
2022-11-25T21:14:32.750Z,8.38
2022-11-25T21:17:02.044Z,8.37
2022-11-25T21:19:30.873Z,8.44
2022-11-25T21:21:59.064Z,8.40
2022-11-25T21:24:40.501Z,8.39
2022-11-25T21:27:15.451Z,8.35
2022-11-25T21:29:45.902Z,8.40
2022-11-25T21:32:26.690Z,8.33
2022-11-25T21:34:57.011Z,8.27
2022-11-25T21:37:40.821Z,8.23
2022-11-25T21:40:45.089Z,8.20
2022-11-25T21:43:24.368Z,8.33
2022-11-25T21:46:06.139Z,8.33
2022-11-25T21:48:36.040Z,8.34
2022-11-25T21:51:04.127Z,8.42
2022-11-25T21:53:37.109Z,8.38
2022-11-25T21:56:26.732Z,8.11
2022-11-25T21:58:59.454Z,8.01
2022-11-25T22:01:28.940Z,8.13
2022-11-25T22:03:57.469Z,8.12
2022-11-25T22:06:29.171Z,8.12
2022-11-25T22:08:58.151Z,8.06
2022-11-25T22:11:41.451Z,8.06
2022-11-25T22:14:24.334Z,8.06
2022-11-25T22:16:53.898Z,8.08
2022-11-25T22:19:25.414Z,8.02
2022-11-25T22:21:55.674Z,7.92
2022-11-25T22:24:24.424Z,7.96
2022-11-25T22:26:57.865Z,7.88
2022-11-25T22:29:34.776Z,7.92
2022-11-25T22:32:07.116Z,8.01
2022-11-25T22:34:39.092Z,8.03
2022-11-25T22:37:24.074Z,7.97
2022-11-25T22:39:53.369Z,7.94
2022-11-25T22:42:31.272Z,8.00
2022-11-25T22:45:02.751Z,7.99
2022-11-25T22:47:39.481Z,8.04
2022-11-25T22:50:32.514Z,8.01
2022-11-25T22:53:01.900Z,7.87
2022-11-25T22:55:32.882Z,7.93
2022-11-25T22:58:01.992Z,7.87
2022-11-25T23:00:36.071Z,7.71
2022-11-25T23:03:07.210Z,7.71
2022-11-25T23:05:40.583Z,7.80
2022-11-25T23:08:27.207Z,7.87
2022-11-25T23:10:56.934Z,7.92
2022-11-25T23:13:26.558Z,7.83
2022-11-25T23:15:58.473Z,7.90
2022-11-25T23:18:37.774Z,7.87
2022-11-25T23:21:11.485Z,7.91
2022-11-25T23:23:43.225Z,7.90
2022-11-25T23:28:58.155Z,7.96
2022-11-25T23:31:26.154Z,7.78
2022-11-25T23:33:55.881Z,7.87
2022-11-25T23:36:45.123Z,7.87
2022-11-25T23:39:23.904Z,7.83
2022-11-25T23:41:52.946Z,7.85
2022-11-25T23:44:31.949Z,7.88
2022-11-25T23:47:06.741Z,7.92
2022-11-25T23:49:48.564Z,7.79
2022-11-25T23:52:21.620Z,7.74
2022-11-25T23:54:51.749Z,7.75
2022-11-25T23:57:23.420Z,7.84
2022-11-25T23:59:52.858Z,7.72
